createdAt,value
2024-02-13T00:02:53.887Z,2.31
2024-02-13T00:06:56.009Z,2.31
2024-02-13T00:10:57.883Z,2.16
2024-02-13T00:14:59.815Z,2.11
2024-02-13T00:19:03.243Z,2.14
2024-02-13T00:23:05.095Z,2.08
2024-02-13T00:27:06.928Z,2.04
2024-02-13T00:31:08.972Z,1.97
2024-02-13T00:35:12.330Z,2.07
2024-02-13T00:39:14.171Z,1.95
2024-02-13T00:43:16.035Z,1.87
2024-02-13T00:47:17.630Z,1.79
2024-02-13T00:51:20.998Z,1.81
2024-02-13T00:55:22.711Z,1.77
2024-02-13T00:59:25.245Z,1.80
2024-02-13T01:03:27.812Z,1.74
2024-02-13T01:07:31.537Z,1.78
2024-02-13T01:11:33.192Z,1.72
2024-02-13T01:15:34.890Z,1.69
2024-02-13T01:19:36.587Z,1.71
2024-02-13T01:23:39.891Z,1.63
2024-02-13T01:27:41.938Z,1.65
2024-02-13T01:31:43.786Z,1.61
2024-02-13T01:35:45.506Z,1.58
2024-02-13T01:39:48.638Z,1.50
2024-02-13T01:43:50.468Z,1.49
2024-02-13T01:47:52.595Z,1.47
2024-02-13T01:51:54.417Z,1.47
2024-02-13T01:55:59.050Z,1.40
2024-02-13T02:00:00.832Z,1.32
2024-02-13T02:04:04.448Z,1.32
2024-02-13T02:08:07.522Z,1.47
2024-02-13T02:12:10.749Z,1.41
2024-02-13T02:16:13.073Z,1.41
2024-02-13T02:20:15.618Z,1.35
2024-02-13T02:24:17.240Z,1.34
2024-02-13T02:28:20.681Z,1.35
2024-02-13T02:32:22.493Z,1.36
2024-02-13T02:36:24.191Z,1.45
2024-02-13T02:40:26.102Z,1.52
2024-02-13T02:44:29.359Z,1.60
2024-02-13T02:48:31.463Z,1.53
2024-02-13T02:52:33.351Z,1.54
2024-02-13T02:56:35.114Z,1.44
2024-02-13T03:00:39.356Z,1.38
2024-02-13T03:04:40.988Z,1.39
2024-02-13T03:08:43.041Z,1.37
2024-02-13T03:12:44.794Z,1.36
2024-02-13T03:16:47.843Z,1.27
2024-02-13T03:20:49.996Z,1.27
2024-02-13T03:24:52.942Z,1.31
2024-02-13T03:28:54.770Z,1.31
2024-02-13T03:32:57.982Z,1.41
2024-02-13T03:36:59.884Z,1.31
2024-02-13T03:41:01.686Z,1.36
2024-02-13T03:45:03.951Z,1.49
2024-02-13T03:49:07.663Z,1.54
2024-02-13T03:53:11.954Z,1.61
2024-02-13T03:57:13.822Z,1.64
2024-02-13T04:01:15.614Z,1.59
2024-02-13T04:05:18.802Z,1.46
2024-02-13T04:09:21.011Z,1.41
2024-02-13T04:13:22.679Z,1.41
2024-02-13T04:17:24.829Z,1.25
2024-02-13T04:21:27.914Z,1.24
2024-02-13T04:25:29.937Z,1.37
2024-02-13T04:29:31.756Z,1.30
2024-02-13T04:33:33.509Z,1.34
2024-02-13T04:37:37.142Z,1.42
2024-02-13T04:41:38.879Z,1.39
2024-02-13T04:45:40.555Z,1.28
2024-02-13T04:49:42.393Z,1.30
2024-02-13T04:53:45.811Z,1.31
2024-02-13T04:57:47.690Z,1.23
2024-02-13T05:01:49.372Z,1.30
2024-02-13T05:05:51.107Z,1.31
2024-02-13T05:09:54.330Z,1.34
2024-02-13T05:13:58.965Z,1.33
2024-02-13T05:18:02.438Z,1.31
2024-02-13T05:22:04.543Z,1.30
2024-02-13T05:26:07.603Z,1.25
2024-02-13T05:30:10.082Z,1.24
2024-02-13T05:34:12.026Z,1.22
2024-02-13T05:38:13.874Z,1.20
2024-02-13T05:42:16.968Z,1.14
2024-02-13T05:46:18.786Z,1.08
2024-02-13T05:50:20.692Z,1.04
2024-02-13T05:54:22.553Z,1.00
2024-02-13T05:58:25.558Z,0.94
2024-02-13T06:02:27.272Z,0.95
2024-02-13T06:06:29.470Z,0.97
2024-02-13T06:10:31.429Z,0.92
2024-02-13T06:14:35.114Z,0.90
2024-02-13T06:18:37.181Z,0.90
2024-02-13T06:22:38.933Z,0.83
2024-02-13T06:26:40.614Z,0.81
2024-02-13T06:30:44.063Z,0.86
2024-02-13T06:34:46.045Z,0.72
2024-02-13T06:38:47.799Z,0.72
2024-02-13T06:42:49.559Z,0.87
2024-02-13T06:46:52.730Z,0.91
2024-02-13T06:50:54.449Z,0.84
2024-02-13T06:54:56.098Z,0.88
2024-02-13T06:58:57.949Z,0.90
2024-02-13T07:03:01.111Z,0.99
2024-02-13T07:07:13.857Z,1.01
2024-02-13T07:11:21.417Z,1.05
2024-02-13T07:15:23.313Z,1.17
2024-02-13T07:19:26.694Z,1.28
2024-02-13T07:23:28.537Z,1.35
2024-02-13T07:27:30.120Z,1.42
2024-02-13T07:31:31.764Z,1.59
2024-02-13T07:35:34.945Z,1.65
2024-02-13T07:39:36.802Z,1.85
2024-02-13T07:43:38.417Z,2.13
2024-02-13T07:47:40.088Z,2.45
2024-02-13T07:51:43.142Z,2.73
2024-02-13T07:55:44.748Z,2.83
2024-02-13T07:59:47.117Z,3.05
2024-02-13T08:03:49.212Z,3.20
2024-02-13T08:07:52.674Z,3.46
2024-02-13T08:11:54.451Z,3.59
2024-02-13T08:15:56.121Z,3.84
2024-02-13T08:19:57.786Z,3.98
2024-02-13T08:24:00.785Z,4.09
2024-02-13T08:28:02.484Z,4.12
2024-02-13T08:32:05.321Z,4.16
2024-02-13T08:36:08.215Z,4.17
2024-02-13T08:40:12.555Z,4.13
2024-02-13T08:44:14.185Z,4.17
2024-02-13T08:48:16.076Z,4.23
2024-02-13T08:52:17.758Z,4.27
2024-02-13T08:56:20.821Z,4.38
2024-02-13T09:00:22.820Z,4.45
2024-02-13T09:04:24.777Z,4.61
2024-02-13T09:08:26.529Z,4.54
2024-02-13T09:12:29.632Z,4.81
2024-02-13T09:16:31.405Z,4.98
2024-02-13T09:20:33.208Z,5.04
2024-02-13T09:24:34.877Z,5.12
2024-02-13T09:28:37.918Z,5.15
2024-02-13T09:32:39.747Z,5.15
2024-02-13T09:36:42.308Z,5.29
2024-02-13T09:40:44.084Z,5.52
2024-02-13T09:44:47.197Z,5.64
2024-02-13T09:48:50.120Z,5.76
2024-02-13T09:52:54.383Z,5.78
2024-02-13T09:56:58.744Z,5.96
2024-02-13T10:01:02.493Z,6.12
2024-02-13T10:05:04.639Z,6.21
2024-02-13T10:09:06.828Z,6.42
2024-02-13T10:13:08.446Z,6.77
2024-02-13T10:17:11.834Z,7.17
2024-02-13T10:21:14.480Z,7.38
2024-02-13T10:25:16.901Z,7.38
2024-02-13T10:29:18.515Z,7.25
2024-02-13T10:33:21.613Z,7.40
2024-02-13T10:37:26.422Z,8.11
2024-02-13T10:41:28.224Z,8.47
2024-02-13T10:45:30.362Z,9.58
2024-02-13T10:49:43.906Z,9.37
2024-02-13T10:53:47.773Z,10.56
2024-02-13T10:57:51.498Z,11.30
2024-02-13T11:01:55.788Z,12.31
2024-02-13T11:05:59.024Z,12.18
2024-02-13T11:10:00.986Z,11.74
2024-02-13T11:14:02.824Z,12.13
2024-02-13T11:18:10.013Z,12.74
2024-02-13T11:22:13.260Z,14.17
2024-02-13T11:26:18.983Z,14.89
2024-02-13T11:30:21.729Z,14.72
2024-02-13T11:34:38.977Z,15.08
2024-02-13T11:38:42.662Z,15.82
2024-02-13T11:42:44.343Z,16.00
2024-02-13T11:46:49.967Z,15.80
2024-02-13T11:50:51.695Z,15.12
2024-02-13T11:54:54.836Z,14.85
2024-02-13T11:59:03.522Z,14.37
2024-02-13T12:03:05.517Z,13.52
2024-02-13T12:07:07.673Z,13.22
2024-02-13T12:11:11.082Z,14.15
2024-02-13T12:15:13.165Z,15.05
2024-02-13T12:19:15.569Z,14.77
2024-02-13T12:23:17.607Z,16.05
2024-02-13T12:27:20.698Z,17.51
2024-02-13T12:31:23.998Z,14.77
2024-02-13T12:35:25.708Z,12.84
2024-02-13T12:39:27.723Z,12.49
2024-02-13T12:43:31.187Z,12.70
2024-02-13T12:47:32.903Z,12.54
2024-02-13T12:51:34.935Z,12.14
2024-02-13T12:55:37.563Z,11.58
2024-02-13T12:59:40.698Z,11.30
2024-02-13T13:03:42.555Z,11.18
2024-02-13T13:07:46.799Z,10.59
2024-02-13T13:11:49.171Z,10.71
2024-02-13T13:15:52.585Z,11.02
2024-02-13T13:19:54.371Z,10.69
2024-02-13T13:23:57.581Z,10.55
2024-02-13T13:27:59.597Z,10.69
2024-02-13T13:32:02.706Z,10.63
2024-02-13T13:36:04.644Z,11.02
2024-02-13T13:40:08.389Z,11.08
2024-02-13T13:44:10.905Z,11.28
2024-02-13T13:48:16.263Z,11.35
2024-02-13T13:52:18.121Z,10.93
2024-02-13T13:56:19.994Z,10.80
2024-02-13T14:00:21.909Z,10.92
2024-02-13T14:04:25.253Z,11.08
2024-02-13T14:08:27.262Z,11.16
2024-02-13T14:12:29.210Z,10.99
2024-02-13T14:16:31.111Z,10.87
2024-02-13T14:20:34.579Z,10.74
2024-02-13T14:24:36.338Z,10.64
2024-02-13T14:28:37.984Z,10.56
2024-02-13T14:32:39.816Z,10.61
2024-02-13T14:36:44.850Z,10.40
2024-02-13T14:40:47.182Z,10.13
2024-02-13T14:44:48.999Z,10.02
2024-02-13T14:48:51.110Z,9.83
2024-02-13T14:52:57.621Z,9.86
2024-02-13T14:56:59.649Z,9.80
2024-02-13T15:01:01.542Z,9.77
2024-02-13T15:05:03.570Z,9.72
2024-02-13T15:09:06.645Z,9.62
2024-02-13T15:13:08.367Z,9.50
2024-02-13T15:17:16.059Z,9.40
2024-02-13T15:21:18.039Z,9.68
2024-02-13T15:25:21.123Z,9.40
2024-02-13T15:29:22.931Z,9.29
2024-02-13T15:33:24.691Z,9.34
2024-02-13T15:37:26.511Z,9.25
2024-02-13T15:41:30.617Z,9.34
2024-02-13T15:45:33.170Z,9.24
2024-02-13T15:49:36.106Z,9.24
2024-02-13T15:53:38.033Z,9.24
2024-02-13T15:57:42.691Z,9.25
2024-02-13T16:01:44.445Z,9.13
2024-02-13T16:05:46.269Z,9.25
2024-02-13T16:09:48.011Z,9.18
2024-02-13T16:13:51.008Z,9.13
2024-02-13T16:17:52.814Z,9.07
2024-02-13T16:21:54.537Z,8.79
2024-02-13T16:25:56.317Z,8.90
2024-02-13T16:29:59.460Z,8.81
2024-02-13T16:34:01.389Z,8.66
2024-02-13T16:38:04.751Z,8.68
2024-02-13T16:42:06.688Z,8.74
2024-02-13T16:46:10.031Z,8.56
2024-02-13T16:50:11.716Z,8.59
2024-02-13T16:54:13.457Z,8.52
2024-02-13T16:58:16.236Z,8.54
2024-02-13T17:02:19.319Z,8.46
2024-02-13T17:06:21.275Z,8.49
2024-02-13T17:10:23.151Z,8.45
2024-02-13T17:14:24.883Z,8.59
2024-02-13T17:18:28.509Z,8.36
2024-02-13T17:22:30.276Z,8.55
2024-02-13T17:26:32.369Z,8.32
2024-02-13T17:30:34.234Z,8.40
2024-02-13T17:34:38.157Z,8.42
2024-02-13T17:38:40.033Z,8.32
2024-02-13T17:42:41.877Z,8.32
2024-02-13T17:46:43.496Z,8.32
2024-02-13T17:50:47.226Z,8.20
2024-02-13T17:54:48.868Z,8.32
2024-02-13T17:58:50.605Z,8.25
2024-02-13T18:02:52.290Z,8.24
2024-02-13T18:06:55.607Z,8.16
2024-02-13T18:10:57.571Z,8.09
2024-02-13T18:14:59.501Z,8.07
2024-02-13T18:19:02.005Z,8.14
2024-02-13T18:23:05.512Z,8.12
2024-02-13T18:27:11.254Z,8.23
2024-02-13T18:31:13.095Z,8.05
2024-02-13T18:35:14.907Z,8.10
2024-02-13T18:39:18.942Z,8.17
2024-02-13T18:43:20.581Z,8.06
2024-02-13T18:47:22.264Z,8.07
2024-02-13T18:51:24.344Z,8.08
2024-02-13T18:55:27.350Z,7.94
2024-02-13T18:59:28.982Z,7.94
2024-02-13T19:03:31.114Z,8.03
2024-02-13T19:07:32.746Z,8.00
2024-02-13T19:11:35.798Z,7.91
2024-02-13T19:15:37.471Z,7.89
2024-02-13T19:19:40.417Z,7.86
2024-02-13T19:23:42.136Z,7.92
2024-02-13T19:27:45.468Z,7.76
2024-02-13T19:31:47.091Z,7.80
2024-02-13T19:35:51.595Z,7.73
2024-02-13T19:39:53.338Z,7.79
2024-02-13T19:43:56.434Z,7.81
2024-02-13T19:47:58.176Z,7.78
2024-02-13T19:51:59.976Z,7.78
2024-02-13T19:56:01.901Z,7.78
2024-02-13T20:00:07.452Z,7.75
2024-02-13T20:04:11.456Z,7.69
2024-02-13T20:08:13.216Z,7.76
2024-02-13T20:12:14.998Z,7.62
2024-02-13T20:16:17.963Z,7.40
2024-02-13T20:20:20.002Z,7.56
2024-02-13T20:24:21.597Z,7.64
2024-02-13T20:28:23.349Z,7.67
2024-02-13T20:32:27.233Z,7.65
2024-02-13T20:36:29.003Z,7.64
2024-02-13T20:40:30.686Z,7.61
2024-02-13T20:44:32.527Z,7.72
2024-02-13T20:48:35.687Z,7.71
2024-02-13T20:52:37.943Z,7.73
2024-02-13T20:56:39.675Z,7.76
2024-02-13T21:00:41.559Z,7.70
2024-02-13T21:04:45.216Z,7.67
2024-02-13T21:08:46.969Z,7.70
2024-02-13T21:12:48.663Z,7.73
2024-02-13T21:16:50.343Z,7.73
2024-02-13T21:20:53.645Z,7.66
2024-02-13T21:24:55.343Z,7.83
2024-02-13T21:28:57.120Z,7.83
2024-02-13T21:32:58.842Z,7.89
2024-02-13T21:37:01.846Z,7.92
2024-02-13T21:41:03.664Z,7.91
2024-02-13T21:45:06.280Z,7.88
2024-02-13T21:49:08.231Z,7.89
2024-02-13T21:53:11.526Z,7.92
2024-02-13T21:57:13.567Z,7.98
2024-02-13T22:01:16.637Z,7.96
2024-02-13T22:05:18.317Z,8.05
2024-02-13T22:09:21.271Z,8.06
2024-02-13T22:13:24.225Z,8.05
2024-02-13T22:17:25.949Z,8.09
2024-02-13T22:21:28.148Z,7.96
2024-02-13T22:25:31.409Z,8.06
2024-02-13T22:29:33.533Z,8.01
2024-02-13T22:33:35.836Z,8.06
2024-02-13T22:37:37.717Z,8.00
2024-02-13T22:41:40.795Z,8.03
2024-02-13T22:45:43.690Z,7.90
2024-02-13T22:49:45.351Z,7.94
2024-02-13T22:53:47.264Z,8.00
2024-02-13T22:57:50.366Z,7.93
2024-02-13T23:01:51.930Z,8.17
2024-02-13T23:05:54.568Z,8.21
2024-02-13T23:09:56.373Z,8.17
2024-02-13T23:13:59.630Z,8.23
2024-02-13T23:18:01.566Z,8.08
2024-02-13T23:22:04.145Z,8.25
2024-02-13T23:26:05.801Z,8.23
2024-02-13T23:30:10.647Z,8.19
2024-02-13T23:34:12.495Z,8.25
2024-02-13T23:38:14.267Z,8.23
2024-02-13T23:42:15.895Z,8.17
2024-02-13T23:46:19.030Z,8.25
2024-02-13T23:50:20.681Z,8.18
2024-02-13T23:54:22.465Z,8.19
2024-02-13T23:58:25.743Z,8.23
